LERS/REU METAR and TAF weather

Enter ICAO airport designator
Station Type Date Time Source
LERS METAR 2019/02/20 23:30 UTC NOAA

LERS 202330Z AUTO 01003KT 9999 NCD 05/03 Q1027


Station Type Date Time Source
LERS Decoded METAR 2019/02/20 23:30 UTC NOAA

Reus / Aeropuerto, Spain (LERS) 41-09N 001-10E 76M
Feb 20, 2019 - 06:30 PM EST / 2019.02.20 2330 UTC
Wind: from the N (010 degrees) at 3 MPH (3 KT):0
Visibility: greater than 7 mile(s):0
Temperature: 41 F (5 C)
Dew Point: 37 F (3 C)
Relative Humidity: 86%
Pressure (altimeter): 30.33 in. Hg (1027 hPa)
ob: LERS 202330Z AUTO 01003KT 9999 NCD 05/03 Q1027
cycle: 23

Station Type Date Time Source
LERS TAF 2019/02/20 21:29 UTC NOAA

TAF LERS 202000Z 2021/2121 32005KT 9999 SCT030 TX16/2113Z TN02/2106Z
BECMG 2108/2110 22006KT


Example: see airport list